x

South Moresby (46147) Wave Buoy

12:00am - Sat 19th Aug 2017 All times are PDT. -7 hours from GMT.

  • Sig Wave height 7.2ft
  • Peak Period 8s
  • Wind
    13mph, 16mph gusts
  • Sea Temp 54°f
  • Air Temp 57°f
  • Sea Pressure 1022.5mb
  • South Moresby
  • South Moresby

More Historic Weather Station data

Upgrade to MSW Pro to gain access to the past 30 days of data for over 8000 Wavebouys and Weather Stations around the globe.

Join

Comparision Forecast

View Surf forecast
   
Sat 08/19 12:00am 7ft 8s 13 16 mph 1022.5mb 54f 57f
Fri 08/18 11:00pm 7.5ft 8s 11 13 mph 1022.5mb 54f 57f
10:00pm 7.5ft 8s 9 13 mph 1022.2mb 54f 56f
9:00pm 8.5ft 9s 13 16 mph 1021.8mb 54f 56f
8:00pm 8ft 8s 16 18 mph 1021.7mb 55f 57f
7:00pm 8ft 8s 16 18 mph 1021.8mb 54f 57f
6:00pm 7.5ft 8s 13 16 mph 1021.7mb 54f 57f
5:00pm 8ft 8s 13 18 mph 1021.8mb 55f 57f
4:00pm 7.5ft 8s 16 18 mph 1021.7mb 56f 57f
3:00pm 7ft 8s 16 18 mph 1021.6mb 56f 58f
2:00pm 7ft 8s 16 20 mph 1021.2mb 56f 59f
1:00pm 6.5ft 8s 11 18 mph 1021mb 57f 58f
12:00pm 7ft 7s 16 20 mph 1020.5mb 57f 58f
11:00am 6.5ft 8s 20 27 mph 1020mb 57f 57f
10:00am 6.5ft 8s 18 22 mph 1019.6mb 57f 58f
9:00am 6.5ft 7s 18 22 mph 1019.2mb 56f 57f
8:00am 7ft 7s 18 20 mph 1019.1mb 56f 58f
7:00am 7ft 7s 18 20 mph 1018.8mb 55f 58f
6:00am 7ft 9s 16 20 mph 1018.4mb 55f 58f
5:00am 7ft 8s 18 22 mph 1018.1mb 56f 58f
4:00am 7.5ft 8s 16 20 mph 1017.9mb 57f 58f
3:00am 7ft 8s 16 20 mph 1017.7mb 58f 58f
2:00am 7.5ft 8s 16 18 mph 1017.1mb 58f 58f
1:00am 7ft 8s 18 22 mph 1016.4mb 58f 59f
12:00am 7ft 11s 16 20 mph 1016mb 58f 59f
Thu 08/17 11:00pm 7ft 8s 16 20 mph 1015.6mb 58f 59f
10:00pm 7ft 8s 18 22 mph 1015.3mb 58f 59f
9:00pm 7.5ft 8s 18 20 mph 1014.8mb 58f 59f
8:00pm 8ft 9s 16 18 mph 1014.8mb 58f 58f
7:00pm 8ft 8s 13 16 mph 1014.8mb 58f 58f
6:00pm 8ft 7s 11 13 mph 1014.8mb 58f 58f
5:00pm 9ft 7s 9 13 mph 1015mb 58f 58f
4:00pm 8ft 8s 22 27 mph 1014.5mb 58f 58f
3:00pm 8.5ft 6s 22 27 mph 1014.6mb 58f 58f
2:00pm 8ft 6s 22 29 mph 1014.6mb 58f 58f
1:00pm 7.5ft 11s 22 29 mph 1014.5mb 58f 58f
12:00pm 7ft 11s 25 29 mph 1014.8mb 58f 58f
11:00am 7ft 11s 22 27 mph 1014.9mb 58f 58f
10:00am 6ft 10s 22 29 mph 1015.1mb 57f 58f
9:00am 6ft 9s 20 27 mph 1015.7mb 57f 57f
8:00am 6ft 11s 18 22 mph 1016.7mb 56f 58f
7:00am 6.5ft 10s 16 18 mph 1017.6mb 57f 58f
6:00am 7ft 12s 11 13 mph 1018.5mb 57f 57f
5:00am 7.5ft 12s 9 11 mph 1018.6mb 58f 57f
4:00am 8ft 9s 9 13 mph 1019.3mb 58f 57f
3:00am 8ft 9s 9 11 mph 1019.6mb 58f 58f
2:00am 8ft 11s 11 13 mph 1019.9mb 58f 58f
1:00am 8ft 9s 7 9 mph 1020.1mb 58f 57f
12:00am 8ft 11s 7 9 mph 1020.1mb 58f 58f
Wed 08/16 11:00pm 8ft 11s 9 11 mph 1020.2mb 58f 58f
10:00pm 9ft 12s 4 7 mph 1019.8mb 57f 57f
9:00pm 8.5ft 12s 4 7 mph 1019.7mb 56f 58f
8:00pm 9ft 11s 4 9 mph 1019.8mb 57f 58f
7:00pm 9ft 11s 9 11 mph 1019.8mb 57f 58f
6:00pm 10ft 10s 11 16 mph 1019.7mb 57f 58f
5:00pm 10ft 11s 9 11 mph 1019.8mb 57f 58f
4:00pm 9.5ft 12s 9 13 mph 1019.4mb 57f 58f
3:00pm 10ft 11s 11 16 mph 1019.2mb 57f 58f
2:00pm 9ft 10s 11 13 mph 1018.5mb 56f 58f
1:00pm 8.5ft 11s 13 18 mph 1017.9mb 57f 58f
12:00pm 9ft 10s 13 16 mph 1017.2mb 57f 58f
11:00am 8ft 10s 11 16 mph 1016.5mb 56f 58f
10:00am 8.5ft 9s 13 16 mph 1016.2mb 56f 57f
9:00am 7.5ft 10s 13 18 mph 1015.7mb 56f 57f
8:00am 8ft 10s 13 16 mph 1015.3mb 56f 57f
7:00am 7.5ft 10s 13 16 mph 1015mb 56f 57f
6:00am 7.5ft 10s 13 16 mph 1014.6mb 56f 57f
5:00am 8ft 8s 18 22 mph 1014.1mb 56f 56f
4:00am 7.5ft 10s 16 18 mph 1013.9mb 56f 58f
3:00am 7.5ft 10s 16 18 mph 1013.9mb 56f 58f
2:00am 8ft 8s 13 18 mph 1013.5mb 56f 58f
1:00am 7.5ft 9s 16 18 mph 1013.1mb 56f 58f
12:00am 8ft 10s 16 18 mph 1013.1mb 56f 58f
Tue 08/15 11:00pm 7ft 10s 13 16 mph 1012.9mb 56f 58f
10:00pm 7.5ft 10s 13 16 mph 1012.5mb 56f 58f
9:00pm 7.5ft 10s 13 18 mph 1012.2mb 56f 58f
8:00pm 7.5ft 10s 16 18 mph 1012.1mb 56f 58f
7:00pm 7.5ft 10s 16 18 mph 1012.4mb 56f 58f
6:00pm 7.5ft 10s 13 18 mph 1012.8mb 57f 58f
5:00pm 7ft 10s 16 18 mph 1013.2mb 57f 58f
4:00pm 7ft 9s 16 18 mph 1013.7mb 57f 58f
3:00pm 7ft 10s 9 11 mph 1014.3mb 57f 57f
2:00pm 7ft 10s 9 11 mph 1014.5mb 58f 57f
1:00pm 6ft 9s 9 11 mph 1014.6mb 57f 57f
12:00pm 5.5ft 10s 9 13 mph 1014.5mb 55f 57f
11:00am 5ft 6s 11 13 mph 1014.1mb 56f 57f
10:00am 4.5ft 9s 11 13 mph 1014.1mb 56f 57f
9:00am 4.5ft 6s 13 16 mph 1014.4mb 56f 57f